Terminal Aerodrome Forecast
Issued by NWS Sterling, VA

Current Version | Previous Version | Graphics & Text | Print | Product List | Glossary On
Versions: 1 2 3 4 5 6 7 8 9 10 11 12 13 14 15 16 17 18 19 20 21 22 23 24 25
000
FTUS41 KLWX 041724
TAFDCA
TAF
KDCA 041724Z 0418/0518 10008KT P6SM VCTS BKN050CB BKN130
     FM042200 10008G16KT P6SM SCT050 SCT130
     FM050400 09010KT P6SM BKN015
     FM050700 07007KT P6SM BKN008 OVC015
     FM051300 06008KT P6SM BKN015 BKN050
     FM051700 08008KT P6SM SCT050=

USA.gov is the U.S. government's official web portal to all federal, state and local government web resources and services.